Time;durP1;ratioP1;P1;durP2;ratioP2;P2;SDS_P1;SDS_P2;PMS_P1;PMS_P2;Temp;Humidity;BMP_temperature;BMP_pressure;BME280_temperature;BME280_humidity;BME280_pressure;Samples;Min_cycle;Max_cycle;Signal;HPM_P1;HPM_P2
2022/05/13 00:02:13;;;;;;;7.50;4.43;;;;;;;;;;5053707;28;20200;-79
2022/05/13 00:04:40;;;;;;;13.50;5.43;;;;;;;;;;5052974;28;20285;-78
2022/05/13 00:07:08;;;;;;;6.03;4.50;;;;;;;;;;5053683;28;20202;-79
2022/05/13 00:12:21;;;;;;;4.27;3.90;;;;;;;;;;5053185;28;20209;-78
2022/05/13 00:14:49;;;;;;;5.10;4.60;;;;;;;;;;5053394;28;20233;-78
2022/05/13 00:17:17;;;;;;;4.60;3.80;;;;;;;;;;5053487;28;20686;-79
2022/05/13 00:19:44;;;;;;;4.63;4.17;;;;;;;;;;5053591;28;20202;-79
2022/05/13 00:22:12;;;;;;;4.57;4.20;;;;;;;;;;5052561;28;20229;-78
2022/05/13 00:24:39;;;;;;;4.30;3.90;;;;;;;;;;5053235;28;20528;-79
2022/05/13 00:27:07;;;;;;;5.93;4.17;;;;;;;;;;5053248;28;20193;-79
2022/05/13 00:29:36;;;;;;;4.93;4.47;;;;;;;;;;5053042;28;20209;-78
2022/05/13 00:32:04;;;;;;;4.53;3.97;;;;;;;;;;5053091;28;20710;-79
2022/05/13 00:34:32;;;;;;;4.50;4.10;;;;;;;;;;5052768;28;20296;-79
2022/05/13 00:36:59;;;;;;;6.17;4.60;;;;;;;;;;5053039;28;20587;-79
2022/05/13 00:39:27;;;;;;;7.67;4.40;;;;;;;;;;5052824;28;20209;-79
2022/05/13 00:41:55;;;;;;;6.97;4.57;;;;;;;;;;5053281;28;20619;-78
2022/05/13 00:44:22;;;;;;;4.87;4.47;;;;;;;;;;5052571;28;20284;-79
2022/05/13 00:46:51;;;;;;;4.67;3.53;;;;;;;;;;5052762;28;20237;-79
2022/05/13 00:49:18;;;;;;;6.70;4.70;;;;;;;;;;5052966;28;20285;-79
2022/05/13 00:51:47;;;;;;;4.10;3.73;;;;;;;;;;5052743;28;20221;-79
2022/05/13 00:54:16;;;;;;;4.93;3.93;;;;;;;;;;5052394;28;20201;-78
2022/05/13 00:56:45;;;;;;;8.43;4.00;;;;;;;;;;5052543;28;20238;-78
2022/05/13 00:59:15;;;;;;;5.30;4.87;;;;;;;;;;5052815;28;20637;-78
2022/05/13 01:01:42;;;;;;;4.53;4.03;;;;;;;;;;5052670;28;20277;-78
2022/05/13 01:04:12;;;;;;;4.40;4.00;;;;;;;;;;5052440;28;20583;-79
2022/05/13 01:06:42;;;;;;;4.67;4.30;;;;;;;;;;5052401;28;20290;-79
2022/05/13 01:09:09;;;;;;;4.20;3.80;;;;;;;;;;5052888;28;20201;-79
2022/05/13 01:11:39;;;;;;;6.17;4.40;;;;;;;;;;5052373;28;20309;-78
2022/05/13 01:14:09;;;;;;;5.10;4.23;;;;;;;;;;5052308;28;20244;-78
2022/05/13 01:19:19;;;;;;;5.33;4.10;;;;;;;;;;5051333;28;20193;-78
2022/05/13 01:21:48;;;;;;;4.33;4.03;;;;;;;;;;5052345;28;20251;-78
2022/05/13 01:24:16;;;;;;;4.87;4.47;;;;;;;;;;5051992;28;20255;-78
2022/05/13 01:26:43;;;;;;;5.57;4.37;;;;;;;;;;5052254;28;20602;-78
2022/05/13 01:29:10;;;;;;;4.17;3.70;;;;;;;;;;5052050;28;20557;-78
2022/05/13 01:31:40;;;;;;;4.10;3.80;;;;;;;;;;5052065;28;20852;-78
2022/05/13 01:34:10;;;;;;;5.30;3.80;;;;;;;;;;5052055;28;20638;-79
2022/05/13 01:36:39;;;;;;;4.93;4.53;;;;;;;;;;5052165;28;20244;-79
2022/05/13 01:39:08;;;;;;;4.53;4.13;;;;;;;;;;5052128;28;20197;-78
2022/05/13 01:41:36;;;;;;;5.17;4.77;;;;;;;;;;5051883;28;20637;-78
2022/05/13 01:44:03;;;;;;;3.80;3.53;;;;;;;;;;5051619;28;20292;-78
2022/05/13 01:46:30;;;;;;;4.67;4.20;;;;;;;;;;5051741;28;20288;-78
2022/05/13 01:48:57;;;;;;;4.60;4.17;;;;;;;;;;5051675;28;20693;-78
2022/05/13 01:51:25;;;;;;;4.93;4.53;;;;;;;;;;5052002;28;20233;-78
2022/05/13 01:53:53;;;;;;;4.00;3.63;;;;;;;;;;5051513;28;20189;-78
2022/05/13 01:56:21;;;;;;;4.93;4.43;;;;;;;;;;5051902;28;20273;-79
2022/05/13 01:58:48;;;;;;;4.53;4.13;;;;;;;;;;5051747;28;20201;-78
2022/05/13 02:01:16;;;;;;;5.10;4.63;;;;;;;;;;5051594;28;20285;-79
2022/05/13 02:03:45;;;;;;;4.37;3.70;;;;;;;;;;5051417;28;20233;-79
2022/05/13 02:06:13;;;;;;;4.93;4.47;;;;;;;;;;5051516;28;20254;-79
2022/05/13 02:08:40;;;;;;;5.00;4.60;;;;;;;;;;5051903;28;20198;-79
2022/05/13 02:11:08;;;;;;;4.93;4.47;;;;;;;;;;5051358;28;20197;-79
2022/05/13 02:13:36;;;;;;;5.53;5.00;;;;;;;;;;5051679;28;20580;-79
2022/05/13 02:16:04;;;;;;;5.50;4.50;;;;;;;;;;5051421;28;20201;-78
2022/05/13 02:18:32;;;;;;;4.80;4.40;;;;;;;;;;5051446;28;20198;-79
2022/05/13 02:20:59;;;;;;;4.77;4.30;;;;;;;;;;5051045;28;20202;-78
2022/05/13 02:23:26;;;;;;;4.60;4.20;;;;;;;;;;5051459;28;20740;-79
2022/05/13 02:25:59;;;;;;;4.77;4.37;;;;;;;;;;5051200;28;20194;-78
2022/05/13 02:28:27;;;;;;;4.40;4.10;;;;;;;;;;5051565;28;20281;-79
2022/05/13 02:30:55;;;;;;;5.57;4.20;;;;;;;;;;5050898;28;20199;-79
2022/05/13 02:33:23;;;;;;;4.87;4.47;;;;;;;;;;5051713;28;20248;-79
2022/05/13 02:35:50;;;;;;;6.47;4.20;;;;;;;;;;5051462;28;20206;-80
2022/05/13 02:38:17;;;;;;;5.33;4.77;;;;;;;;;;5051688;28;20602;-80
2022/05/13 02:43:31;;;;;;;4.37;3.97;;;;;;;;;;5051475;28;20182;-80
2022/05/13 02:45:59;;;;;;;5.23;4.83;;;;;;;;;;5052875;28;20666;-79
2022/05/13 02:48:27;;;;;;;4.70;4.30;;;;;;;;;;5055439;28;20202;-79
2022/05/13 02:50:54;;;;;;;4.97;4.43;;;;;;;;;;5054774;28;20197;-79
2022/05/13 02:53:22;;;;;;;4.33;4.03;;;;;;;;;;5054939;28;20221;-79
2022/05/13 02:55:49;;;;;;;5.33;4.20;;;;;;;;;;5054931;28;20207;-79
2022/05/13 02:58:16;;;;;;;4.87;4.47;;;;;;;;;;5054741;28;20240;-78
2022/05/13 03:00:44;;;;;;;5.37;4.73;;;;;;;;;;5054572;28;20224;-78
2022/05/13 03:03:14;;;;;;;6.97;5.23;;;;;;;;;;5054860;28;20194;-78
2022/05/13 03:05:41;;;;;;;4.97;4.03;;;;;;;;;;5054759;28;20204;-78
2022/05/13 03:08:09;;;;;;;5.67;4.37;;;;;;;;;;5054796;28;20288;-78
2022/05/13 03:10:39;;;;;;;4.93;4.07;;;;;;;;;;5054495;28;20557;-78
2022/05/13 03:13:07;;;;;;;6.13;4.53;;;;;;;;;;5054783;28;20228;-78
2022/05/13 03:15:34;;;;;;;5.90;5.23;;;;;;;;;;5054832;28;20281;-79
2022/05/13 03:18:01;;;;;;;11.13;6.00;;;;;;;;;;5054630;28;20194;-78
2022/05/13 03:20:31;;;;;;;9.10;6.83;;;;;;;;;;5054099;28;20244;-78
2022/05/13 03:22:58;;;;;;;8.83;8.03;;;;;;;;;;5054476;28;20200;-78
2022/05/13 03:25:25;;;;;;;4.73;4.30;;;;;;;;;;5054580;28;20198;-79
2022/05/13 03:27:52;;;;;;;4.43;3.70;;;;;;;;;;5054216;28;20293;-79
2022/05/13 03:30:22;;;;;;;5.00;4.53;;;;;;;;;;5054177;28;20237;-78
2022/05/13 03:32:49;;;;;;;6.17;4.93;;;;;;;;;;5054232;28;20228;-78
2022/05/13 03:35:17;;;;;;;7.47;5.27;;;;;;;;;;5054337;28;20284;-78
2022/05/13 03:37:46;;;;;;;4.77;4.37;;;;;;;;;;5055235;28;20200;-79
2022/05/13 03:40:15;;;;;;;4.90;4.50;;;;;;;;;;5073596;28;20197;-79
2022/05/13 03:42:43;;;;;;;5.13;4.27;;;;;;;;;;5073908;28;20193;-79
2022/05/13 03:45:12;;;;;;;7.80;7.10;;;;;;;;;;5073782;28;20288;-79
2022/05/13 03:47:39;;;;;;;10.03;7.60;;;;;;;;;;5074130;28;20197;-78
2022/05/13 03:50:08;;;;;;;8.43;6.40;;;;;;;;;;5073694;28;20276;-79
2022/05/13 03:52:36;;;;;;;5.47;5.00;;;;;;;;;;5073736;28;20221;-79
2022/05/13 03:55:06;;;;;;;6.53;5.30;;;;;;;;;;5064773;28;20197;-80
2022/05/13 03:57:33;;;;;;;5.67;4.87;;;;;;;;;;5052644;28;20320;-78
2022/05/13 04:00:00;;;;;;;5.40;4.97;;;;;;;;;;5053311;28;20608;-79
2022/05/13 04:02:29;;;;;;;5.70;5.13;;;;;;;;;;5053697;28;20658;-78
2022/05/13 04:10:26;;;;;;;5.50;4.60;;;;;;;;;;5053313;28;20189;-77
2022/05/13 04:18:23;;;;;;;5.60;5.00;;;;;;;;;;5053377;28;20185;-77
2022/05/13 04:20:51;;;;;;;7.00;5.17;;;;;;;;;;5053272;28;20201;-77
2022/05/13 04:23:18;;;;;;;6.90;5.40;;;;;;;;;;5053303;28;20625;-77
2022/05/13 04:25:47;;;;;;;6.27;5.47;;;;;;;;;;5053412;28;20277;-77
2022/05/13 04:28:15;;;;;;;7.87;5.40;;;;;;;;;;5052860;28;20215;-77
2022/05/13 04:30:42;;;;;;;5.07;4.67;;;;;;;;;;5052949;28;20197;-77
2022/05/13 04:33:13;;;;;;;8.03;5.63;;;;;;;;;;5052244;28;20316;-77
2022/05/13 04:35:40;;;;;;;7.60;4.90;;;;;;;;;;5052982;28;20693;-77
2022/05/13 04:38:07;;;;;;;4.60;4.30;;;;;;;;;;5052518;28;20712;-77
2022/05/13 04:40:35;;;;;;;5.07;4.67;;;;;;;;;;5052928;28;20204;-77
2022/05/13 04:43:03;;;;;;;4.93;4.53;;;;;;;;;;5053029;28;20194;-77
2022/05/13 04:45:31;;;;;;;6.47;5.33;;;;;;;;;;5052796;28;20259;-77
2022/05/13 04:48:18;;;;;;;5.53;5.00;;;;;;;;;;5052735;28;20198;-77
2022/05/13 04:50:50;;;;;;;6.67;5.67;;;;;;;;;;5052784;28;20272;-77
2022/05/13 04:53:20;;;;;;;5.23;4.73;;;;;;;;;;5052868;28;20209;-77
2022/05/13 04:55:47;;;;;;;6.03;5.53;;;;;;;;;;5052955;28;20209;-77
2022/05/13 04:58:16;;;;;;;5.73;5.23;;;;;;;;;;5052378;28;20324;-77
2022/05/13 05:00:43;;;;;;;6.33;5.77;;;;;;;;;;5052537;28;20757;-77
2022/05/13 05:03:11;;;;;;;6.33;5.67;;;;;;;;;;5052981;28;20196;-77
2022/05/13 05:05:38;;;;;;;6.63;5.73;;;;;;;;;;5052469;28;20293;-77
2022/05/13 05:08:06;;;;;;;5.93;5.43;;;;;;;;;;5052386;28;20580;-77
2022/05/13 05:10:33;;;;;;;7.40;5.43;;;;;;;;;;5052664;28;20563;-77
2022/05/13 05:13:00;;;;;;;5.40;4.97;;;;;;;;;;5052399;28;20230;-77
2022/05/13 05:15:29;;;;;;;5.40;5.00;;;;;;;;;;5052277;28;20747;-77
2022/05/13 05:17:56;;;;;;;6.03;5.53;;;;;;;;;;5052161;28;20202;-77
2022/05/13 05:20:24;;;;;;;5.30;4.90;;;;;;;;;;5052235;28;20229;-77
2022/05/13 05:22:51;;;;;;;5.80;5.30;;;;;;;;;;5052585;28;20196;-77
2022/05/13 05:25:20;;;;;;;8.03;5.93;;;;;;;;;;5051903;28;20664;-77
2022/05/13 05:27:48;;;;;;;13.57;5.63;;;;;;;;;;5052249;28;20202;-77
2022/05/13 05:30:16;;;;;;;11.47;4.97;;;;;;;;;;5052051;28;20769;-77
2022/05/13 05:32:45;;;;;;;14.40;5.33;;;;;;;;;;5052061;28;20308;-77
2022/05/13 05:35:14;;;;;;;10.07;5.67;;;;;;;;;;5051682;28;20279;-77
2022/05/13 05:37:41;;;;;;;7.47;5.50;;;;;;;;;;5052057;28;20725;-77
2022/05/13 05:40:10;;;;;;;9.53;5.00;;;;;;;;;;5051862;28;20285;-77
2022/05/13 05:42:38;;;;;;;6.50;5.83;;;;;;;;;;5052323;28;20200;-77
2022/05/13 05:45:06;;;;;;;9.23;5.13;;;;;;;;;;5051817;28;20231;-77
2022/05/13 05:47:34;;;;;;;13.17;5.17;;;;;;;;;;5051686;28;20196;-77
2022/05/13 05:50:04;;;;;;;7.43;4.97;;;;;;;;;;5051722;28;20234;-77
2022/05/13 05:52:31;;;;;;;10.20;4.77;;;;;;;;;;5052284;28;20310;-77
2022/05/13 05:57:57;;;;;;;9.43;5.33;;;;;;;;;;5051730;28;20306;-77
2022/05/13 06:00:24;;;;;;;6.13;4.80;;;;;;;;;;5051917;28;20208;-77
2022/05/13 06:02:51;;;;;;;7.07;5.80;;;;;;;;;;5052107;28;20196;-77
2022/05/13 06:05:20;;;;;;;7.50;5.53;;;;;;;;;;5051547;28;20285;-77
2022/05/13 06:07:49;;;;;;;9.30;5.63;;;;;;;;;;5051730;28;20211;-77
2022/05/13 06:10:16;;;;;;;6.87;4.70;;;;;;;;;;5051615;28;20197;-77
2022/05/13 06:12:43;;;;;;;5.87;5.17;;;;;;;;;;5051900;28;20221;-77
2022/05/13 06:15:12;;;;;;;6.80;5.20;;;;;;;;;;5051746;28;20615;-77
2022/05/13 06:17:44;;;;;;;5.87;4.43;;;;;;;;;;5051954;28;20202;-77
2022/05/13 06:20:13;;;;;;;4.87;4.47;;;;;;;;;;5052108;28;20190;-77
2022/05/13 06:22:41;;;;;;;6.90;4.30;;;;;;;;;;5055688;28;20233;-78
2022/05/13 06:25:10;;;;;;;5.57;4.67;;;;;;;;;;5055456;28;20189;-78
2022/05/13 06:27:37;;;;;;;8.20;5.70;;;;;;;;;;5055954;28;20737;-77
2022/05/13 06:30:06;;;;;;;5.73;5.30;;;;;;;;;;5055226;28;20237;-77
2022/05/13 06:32:33;;;;;;;6.63;5.77;;;;;;;;;;5055457;28;20280;-78
2022/05/13 06:35:00;;;;;;;6.10;5.50;;;;;;;;;;5055301;28;20198;-77
2022/05/13 06:37:28;;;;;;;5.43;4.60;;;;;;;;;;5055391;28;20288;-77
2022/05/13 06:39:57;;;;;;;4.80;4.40;;;;;;;;;;5055224;28;20200;-77
2022/05/13 06:42:24;;;;;;;8.40;4.97;;;;;;;;;;5055085;28;20216;-77
2022/05/13 06:44:51;;;;;;;5.70;4.30;;;;;;;;;;5055096;28;20241;-77
2022/05/13 06:47:18;;;;;;;5.40;4.90;;;;;;;;;;5055282;28;20259;-78
2022/05/13 06:49:46;;;;;;;6.07;4.50;;;;;;;;;;5054844;28;20268;-78
2022/05/13 06:52:13;;;;;;;4.73;4.23;;;;;;;;;;5055175;28;20198;-77
2022/05/13 06:54:41;;;;;;;7.17;4.83;;;;;;;;;;5055172;28;20225;-78
2022/05/13 06:57:10;;;;;;;4.93;4.63;;;;;;;;;;5055166;28;20273;-77
2022/05/13 06:59:37;;;;;;;12.60;5.10;;;;;;;;;;5054544;28;20211;-77
2022/05/13 07:02:06;;;;;;;5.97;5.43;;;;;;;;;;5054982;28;20204;-77
2022/05/13 07:04:34;;;;;;;8.30;5.30;;;;;;;;;;5054716;28;20197;-77
2022/05/13 07:07:02;;;;;;;5.90;5.27;;;;;;;;;;5054640;28;20229;-78
2022/05/13 07:09:29;;;;;;;6.33;4.90;;;;;;;;;;5054671;28;20292;-78
2022/05/13 07:11:56;;;;;;;7.13;5.37;;;;;;;;;;5054839;28;20202;-78
2022/05/13 07:14:25;;;;;;;5.73;4.60;;;;;;;;;;5054547;28;20283;-77
2022/05/13 07:16:52;;;;;;;5.43;4.77;;;;;;;;;;5054755;28;20197;-77
2022/05/13 07:19:19;;;;;;;4.70;4.30;;;;;;;;;;5054462;28;20244;-77
2022/05/13 07:21:47;;;;;;;6.30;4.63;;;;;;;;;;5054444;28;20658;-78
2022/05/13 07:24:14;;;;;;;4.67;3.83;;;;;;;;;;5054366;28;20189;-77
2022/05/13 07:26:41;;;;;;;5.80;4.47;;;;;;;;;;5054498;28;20194;-78
2022/05/13 07:29:09;;;;;;;6.20;5.60;;;;;;;;;;5054317;28;20198;-77
2022/05/13 07:31:38;;;;;;;5.13;4.73;;;;;;;;;;5054165;28;20201;-78
2022/05/13 07:34:05;;;;;;;8.10;4.50;;;;;;;;;;5054452;28;20601;-78
2022/05/13 07:36:33;;;;;;;16.50;15.00;;;;;;;;;;5054617;28;20198;-78
2022/05/13 07:41:44;;;;;;;5.47;4.63;;;;;;;;;;5054510;28;20188;-77
2022/05/13 07:44:11;;;;;;;5.47;4.77;;;;;;;;;;5054325;28;20212;-78
2022/05/13 07:46:41;;;;;;;5.10;4.70;;;;;;;;;;5054118;28;20204;-78
2022/05/13 07:49:08;;;;;;;4.30;3.93;;;;;;;;;;5053942;28;20289;-78
2022/05/13 07:51:36;;;;;;;5.33;4.53;;;;;;;;;;5054100;28;20280;-78
2022/05/13 07:54:03;;;;;;;5.07;4.53;;;;;;;;;;5053845;28;20228;-78
2022/05/13 07:56:30;;;;;;;5.43;4.10;;;;;;;;;;5053667;28;20204;-78
2022/05/13 07:59:00;;;;;;;4.80;4.30;;;;;;;;;;5054204;28;20190;-78
2022/05/13 08:01:28;;;;;;;4.47;4.17;;;;;;;;;;5053588;28;20194;-78
2022/05/13 08:03:57;;;;;;;5.03;4.23;;;;;;;;;;5053754;28;20197;-78
2022/05/13 08:06:24;;;;;;;5.13;4.73;;;;;;;;;;5053647;28;20226;-78
2022/05/13 08:08:56;;;;;;;5.33;4.83;;;;;;;;;;5053785;28;20216;-78
2022/05/13 08:11:24;;;;;;;5.57;4.43;;;;;;;;;;5053625;28;20196;-78
2022/05/13 08:13:51;;;;;;;4.53;4.17;;;;;;;;;;5053495;28;20309;-78
2022/05/13 08:16:21;;;;;;;4.53;4.13;;;;;;;;;;5053471;28;20288;-78
2022/05/13 08:18:49;;;;;;;4.90;4.50;;;;;;;;;;5053332;28;20260;-78
2022/05/13 08:21:17;;;;;;;4.73;4.20;;;;;;;;;;5053739;28;20632;-79
2022/05/13 08:23:45;;;;;;;5.80;3.93;;;;;;;;;;5053768;28;20248;-78
2022/05/13 08:26:12;;;;;;;5.03;4.17;;;;;;;;;;5053229;28;20293;-79
2022/05/13 08:28:40;;;;;;;6.57;5.63;;;;;;;;;;5053254;28;20666;-79
2022/05/13 08:31:07;;;;;;;6.00;4.17;;;;;;;;;;5053140;28;20280;-79
2022/05/13 08:33:35;;;;;;;4.33;3.93;;;;;;;;;;5053533;28;20253;-79
2022/05/13 08:36:04;;;;;;;7.90;4.83;;;;;;;;;;5053063;28;20190;-78
2022/05/13 08:38:35;;;;;;;5.37;4.33;;;;;;;;;;5053002;28;20207;-79
2022/05/13 08:41:26;;;;;;;4.37;3.97;;;;;;;;;;5052986;28;20182;-78
2022/05/13 08:43:56;;;;;;;4.20;3.90;;;;;;;;;;5052436;28;20272;-79
2022/05/13 08:46:34;;;;;;;4.30;3.73;;;;;;;;;;5053052;28;20190;-79
2022/05/13 08:49:16;;;;;;;5.77;4.27;;;;;;;;;;5052987;28;20186;-79
2022/05/13 08:51:57;;;;;;;7.87;4.30;;;;;;;;;;5052980;28;20240;-78
2022/05/13 08:54:31;;;;;;;4.80;4.23;;;;;;;;;;5052656;28;20568;-79
2022/05/13 08:57:01;;;;;;;4.60;4.23;;;;;;;;;;5052622;28;20237;-79
2022/05/13 08:59:35;;;;;;;4.83;4.10;;;;;;;;;;5052651;28;20577;-79
2022/05/13 09:02:06;;;;;;;4.50;4.10;;;;;;;;;;5053071;28;20189;-79
2022/05/13 09:04:37;;;;;;;5.13;4.33;;;;;;;;;;5052880;28;20587;-79
2022/05/13 09:07:07;;;;;;;7.33;4.37;;;;;;;;;;5052442;28;20197;-79
2022/05/13 09:09:36;;;;;;;4.33;3.93;;;;;;;;;;5052750;28;20297;-79
2022/05/13 09:12:13;;;;;;;4.57;4.20;;;;;;;;;;5052498;28;20210;-79
2022/05/13 09:14:46;;;;;;;4.37;3.97;;;;;;;;;;5052094;28;20248;-78
2022/05/13 09:17:20;;;;;;;6.10;3.97;;;;;;;;;;5052531;28;20651;-79
2022/05/13 09:19:54;;;;;;;4.67;4.27;;;;;;;;;;5052307;28;20225;-80
2022/05/13 09:22:21;;;;;;;5.20;4.37;;;;;;;;;;5052343;28;20196;-79
2022/05/13 09:24:50;;;;;;;8.23;4.37;;;;;;;;;;5052103;28;20639;-79
2022/05/13 09:27:17;;;;;;;4.50;4.00;;;;;;;;;;5052028;28;20229;-79
2022/05/13 09:29:46;;;;;;;6.37;4.70;;;;;;;;;;5051994;28;20194;-79
2022/05/13 09:32:16;;;;;;;6.40;4.23;;;;;;;;;;5052311;28;20240;-79
2022/05/13 09:34:50;;;;;;;6.23;4.77;;;;;;;;;;5051914;28;20228;-79
2022/05/13 09:37:21;;;;;;;6.37;4.03;;;;;;;;;;5051925;28;20197;-79
2022/05/13 09:39:53;;;;;;;5.43;4.07;;;;;;;;;;5052255;28;20185;-79
2022/05/13 09:42:22;;;;;;;4.17;3.87;;;;;;;;;;5052397;28;20186;-79
2022/05/13 09:44:51;;;;;;;6.13;4.73;;;;;;;;;;5051839;28;20194;-79
2022/05/13 09:47:24;;;;;;;5.50;4.03;;;;;;;;;;5052151;28;20618;-79
2022/05/13 09:49:53;;;;;;;5.77;4.67;;;;;;;;;;5051809;28;20192;-79
2022/05/13 09:52:28;;;;;;;4.47;4.07;;;;;;;;;;5052176;28;20202;-79
2022/05/13 09:54:57;;;;;;;4.20;3.80;;;;;;;;;;5050490;28;20698;-79
2022/05/13 09:57:30;;;;;;;4.47;4.00;;;;;;;;;;5051671;28;20237;-79
2022/05/13 10:00:02;;;;;;;6.77;5.17;;;;;;;;;;5051655;28;20182;-79
2022/05/13 10:02:34;;;;;;;7.53;4.20;;;;;;;;;;5052183;28;20193;-79
2022/05/13 10:05:14;;;;;;;6.97;4.03;;;;;;;;;;5051381;28;20734;-79
2022/05/13 10:07:48;;;;;;;4.90;3.90;;;;;;;;;;5051808;28;20228;-79
2022/05/13 10:15:53;;;;;;;10.20;4.00;;;;;;;;;;5051385;28;20697;-79
2022/05/13 10:18:26;;;;;;;4.40;3.40;;;;;;;;;;5051661;28;20289;-79
2022/05/13 10:20:56;;;;;;;5.00;4.50;;;;;;;;;;5051470;28;20570;-80
2022/05/13 10:23:28;;;;;;;4.90;4.50;;;;;;;;;;5051622;28;20236;-79
2022/05/13 10:25:59;;;;;;;5.83;4.27;;;;;;;;;;5051172;28;20761;-79
2022/05/13 10:28:32;;;;;;;6.67;4.13;;;;;;;;;;5051589;28;20189;-79
2022/05/13 10:31:04;;;;;;;8.90;4.83;;;;;;;;;;5051418;28;20371;-79
2022/05/13 10:33:36;;;;;;;8.63;4.40;;;;;;;;;;5051551;28;20630;-79
2022/05/13 10:36:07;;;;;;;5.17;4.67;;;;;;;;;;5051436;28;20182;-79
2022/05/13 10:38:39;;;;;;;4.80;4.23;;;;;;;;;;5051852;28;20192;-79
2022/05/13 10:41:16;;;;;;;4.50;4.10;;;;;;;;;;5051672;28;20265;-79
2022/05/13 10:43:48;;;;;;;5.70;4.87;;;;;;;;;;5051768;28;20196;-79
2022/05/13 10:46:22;;;;;;;5.47;4.50;;;;;;;;;;5051315;28;20590;-79
2022/05/13 10:48:52;;;;;;;8.77;4.33;;;;;;;;;;5051707;28;20570;-79
2022/05/13 10:51:23;;;;;;;6.47;4.70;;;;;;;;;;5051246;28;20198;-79
2022/05/13 10:54:03;;;;;;;4.60;4.27;;;;;;;;;;5051053;28;20186;-79
2022/05/13 10:56:36;;;;;;;4.50;4.10;;;;;;;;;;5051278;28;20225;-79
2022/05/13 10:59:15;;;;;;;4.23;3.80;;;;;;;;;;5051535;28;20209;-79
2022/05/13 11:01:48;;;;;;;4.00;3.60;;;;;;;;;;5051386;28;20190;-79
2022/05/13 11:04:20;;;;;;;5.73;4.03;;;;;;;;;;5050847;28;20201;-79
2022/05/13 11:06:56;;;;;;;4.40;3.93;;;;;;;;;;5052698;28;20186;-79
2022/05/13 11:09:32;;;;;;;4.93;3.80;;;;;;;;;;5055079;28;20213;-79
2022/05/13 11:12:07;;;;;;;5.23;4.50;;;;;;;;;;5055152;28;20272;-79
2022/05/13 11:14:46;;;;;;;7.07;4.27;;;;;;;;;;5054631;28;20228;-79
2022/05/13 11:17:21;;;;;;;4.27;3.83;;;;;;;;;;5055023;28;20182;-79
2022/05/13 11:19:54;;;;;;;7.60;4.33;;;;;;;;;;5054570;28;20189;-79
2022/05/13 11:22:29;;;;;;;4.37;3.97;;;;;;;;;;5054717;28;20787;-79
2022/05/13 11:28:00;;;;;;;4.37;3.97;;;;;;;;;;5054664;28;20181;-79
2022/05/13 11:30:35;;;;;;;4.17;3.87;;;;;;;;;;5054360;28;20260;-79
2022/05/13 11:33:16;;;;;;;4.00;3.70;;;;;;;;;;5054528;28;20598;-79
2022/05/13 11:35:46;;;;;;;4.33;3.77;;;;;;;;;;5054351;28;20210;-79
2022/05/13 11:38:18;;;;;;;4.43;4.03;;;;;;;;;;5054717;28;20587;-79
2022/05/13 11:40:51;;;;;;;5.23;3.60;;;;;;;;;;5054420;28;20186;-79
2022/05/13 11:43:38;;;;;;;4.63;4.10;;;;;;;;;;5054587;28;20651;-79
2022/05/13 11:46:35;;;;;;;3.55;3.25;;;;;;;;;;5033914;28;20194;-80
2022/05/13 11:49:10;;;;;;;4.60;3.47;;;;;;;;;;5034463;28;20586;-79
2022/05/13 11:51:38;;;;;;;3.93;3.50;;;;;;;;;;5034202;28;20281;-79
2022/05/13 11:54:21;;;;;;;3.92;3.53;;;;;;;;;;5034003;28;20289;-79
2022/05/13 11:56:49;;;;;;;3.72;3.45;;;;;;;;;;5033739;28;20714;-79
2022/05/13 11:59:47;;;;;;;3.30;3.10;;;;;;;;;;5034241;28;20257;-79
2022/05/13 12:02:36;;;;;;;3.67;3.38;;;;;;;;;;5033927;28;20633;-80
2022/05/13 12:05:25;;;;;;;3.80;3.47;;;;;;;;;;5033232;28;20186;-79
2022/05/13 12:07:54;;;;;;;2.90;2.70;;;;;;;;;;5034008;28;20194;-79
2022/05/13 12:10:26;;;;;;;4.43;3.40;;;;;;;;;;5033648;28;20202;-79
2022/05/13 12:13:05;;;;;;;3.90;3.60;;;;;;;;;;5034201;28;20265;-79
2022/05/13 12:15:44;;;;;;;3.40;3.10;;;;;;;;;;5033306;28;20217;-79
2022/05/13 12:18:22;;;;;;;3.58;3.05;;;;;;;;;;5032704;28;20186;-79
2022/05/13 12:20:53;;;;;;;4.88;3.17;;;;;;;;;;5033539;28;20281;-79
2022/05/13 12:23:25;;;;;;;3.70;3.20;;;;;;;;;;5033962;28;20274;-79
2022/05/13 12:25:57;;;;;;;3.35;2.83;;;;;;;;;;5033430;28;20191;-79
2022/05/13 12:29:01;;;;;;;3.80;3.50;;;;;;;;;;5033460;28;20324;-79
2022/05/13 12:31:50;;;;;;;4.68;3.17;;;;;;;;;;5020777;28;20202;-79
2022/05/13 12:37:36;;;;;;;3.63;3.13;;;;;;;;;;5009181;28;20198;-79
2022/05/13 12:40:28;;;;;;;3.80;3.35;;;;;;;;;;5033116;28;20254;-79
2022/05/13 12:43:00;;;;;;;3.80;3.40;;;;;;;;;;5029438;28;20282;-79
2022/05/13 12:46:04;;;;;;;3.42;3.10;;;;;;;;;;5033042;28;20266;-80
2022/05/13 12:48:33;;;;;;;5.60;3.25;;;;;;;;;;4952070;29;20256;-79
2022/05/13 12:51:19;;;;;;;4.53;3.67;;;;;;;;;;4952827;29;20244;-79
2022/05/13 12:53:50;;;;;;;3.37;3.07;;;;;;;;;;4953107;29;20706;-79
2022/05/13 12:56:31;;;;;;;4.73;3.27;;;;;;;;;;4952743;29;20213;-79
2022/05/13 12:59:08;;;;;;;3.25;2.95;;;;;;;;;;4952617;29;20284;-79
2022/05/13 13:01:35;;;;;;;3.70;3.40;;;;;;;;;;4952797;29;20741;-79
2022/05/13 13:04:07;;;;;;;7.60;4.10;;;;;;;;;;4952602;29;20209;-79
2022/05/13 13:06:41;;;;;;;3.35;3.05;;;;;;;;;;4952846;29;20202;-79
2022/05/13 13:09:17;;;;;;;3.33;2.80;;;;;;;;;;4952392;29;20193;-79
2022/05/13 13:11:50;;;;;;;4.10;3.70;;;;;;;;;;4952700;29;20579;-79
2022/05/13 13:14:19;;;;;;;4.13;3.72;;;;;;;;;;4952396;29;20277;-79
2022/05/13 13:16:51;;;;;;;3.55;3.03;;;;;;;;;;4952503;29;20257;-79
2022/05/13 13:19:23;;;;;;;6.95;3.08;;;;;;;;;;4990315;28;20633;-79
2022/05/13 13:21:54;;;;;;;3.15;2.50;;;;;;;;;;5032839;28;20195;-79
2022/05/13 13:24:22;;;;;;;3.53;2.88;;;;;;;;;;5032342;28;20187;-79
2022/05/13 13:26:51;;;;;;;3.58;3.05;;;;;;;;;;5032432;28;20234;-79
2022/05/13 13:29:21;;;;;;;3.42;3.20;;;;;;;;;;5031725;28;20205;-79
2022/05/13 13:31:51;;;;;;;4.70;2.63;;;;;;;;;;5032710;28;20198;-79
2022/05/13 13:34:32;;;;;;;3.88;3.47;;;;;;;;;;5032380;28;20221;-79
2022/05/13 13:37:00;;;;;;;3.60;3.25;;;;;;;;;;5032321;28;20183;-79
2022/05/13 13:39:29;;;;;;;4.30;3.67;;;;;;;;;;5031834;28;20240;-79
2022/05/13 13:42:02;;;;;;;7.43;3.17;;;;;;;;;;5032393;28;20286;-79
2022/05/13 13:44:30;;;;;;;4.00;3.57;;;;;;;;;;5032052;28;20191;-79
2022/05/13 13:46:57;;;;;;;4.17;3.37;;;;;;;;;;5032043;28;20289;-79
2022/05/13 13:49:31;;;;;;;5.90;3.40;;;;;;;;;;5031907;28;20294;-79
2022/05/13 13:52:01;;;;;;;5.23;2.90;;;;;;;;;;5032137;28;20605;-79
2022/05/13 13:54:35;;;;;;;4.13;2.90;;;;;;;;;;5031889;28;20245;-79
2022/05/13 13:57:15;;;;;;;3.63;2.77;;;;;;;;;;5031854;28;20643;-79
2022/05/13 13:59:45;;;;;;;4.00;2.93;;;;;;;;;;5031614;28;20197;-79
2022/05/13 14:02:12;;;;;;;5.90;2.97;;;;;;;;;;5031965;28;20186;-79
2022/05/13 14:04:49;;;;;;;9.90;2.70;;;;;;;;;;5031981;28;20552;-79
2022/05/13 14:07:19;;;;;;;9.77;3.33;;;;;;;;;;5031634;28;20655;-79
2022/05/13 14:09:46;;;;;;;6.50;3.23;;;;;;;;;;5032001;28;20640;-79
2022/05/13 14:12:17;;;;;;;5.10;3.13;;;;;;;;;;5032155;28;20665;-79
2022/05/13 14:14:46;;;;;;;5.10;3.30;;;;;;;;;;5031327;28;20290;-79
2022/05/13 14:17:14;;;;;;;8.43;3.23;;;;;;;;;;5031785;28;20203;-79
2022/05/13 14:19:48;;;;;;;2.87;2.53;;;;;;;;;;5031719;28;20766;-79
2022/05/13 14:22:16;;;;;;;2.90;2.60;;;;;;;;;;5031806;28;20233;-79
2022/05/13 14:24:44;;;;;;;4.83;2.53;;;;;;;;;;5031551;28;20202;-79
2022/05/13 14:27:15;;;;;;;3.10;2.73;;;;;;;;;;5031497;28;20200;-80
2022/05/13 14:29:43;;;;;;;8.23;5.57;;;;;;;;;;5031531;28;20647;-79
2022/05/13 14:32:12;;;;;;;8.87;5.77;;;;;;;;;;5031621;28;20195;-79
2022/05/13 14:34:40;;;;;;;5.07;4.30;;;;;;;;;;5031281;28;20205;-79
2022/05/13 14:37:11;;;;;;;5.37;3.13;;;;;;;;;;5031481;28;20729;-79
2022/05/13 14:39:51;;;;;;;6.70;3.53;;;;;;;;;;5031457;28;20197;-79
2022/05/13 14:42:27;;;;;;;5.70;3.23;;;;;;;;;;5033737;28;20676;-79
2022/05/13 14:44:55;;;;;;;3.63;3.30;;;;;;;;;;5035269;28;20281;-79
2022/05/13 14:47:34;;;;;;;4.70;3.20;;;;;;;;;;5035487;28;20347;-79
2022/05/13 14:50:03;;;;;;;4.17;2.77;;;;;;;;;;5035135;28;20266;-79
2022/05/13 14:52:38;;;;;;;4.10;3.30;;;;;;;;;;5033811;28;20234;-79
2022/05/13 14:55:14;;;;;;;4.07;2.97;;;;;;;;;;5035043;28;20257;-79
2022/05/13 14:57:43;;;;;;;4.67;3.30;;;;;;;;;;5035102;28;20234;-79
2022/05/13 15:00:17;;;;;;;3.60;2.80;;;;;;;;;;5035295;28;20202;-79
2022/05/13 15:02:58;;;;;;;5.57;3.63;;;;;;;;;;5035197;28;20190;-79
2022/05/13 15:05:33;;;;;;;3.27;2.93;;;;;;;;;;5034632;28;20189;-79
2022/05/13 15:08:02;;;;;;;4.57;2.83;;;;;;;;;;5035063;28;20661;-79
2022/05/13 15:10:29;;;;;;;4.67;3.83;;;;;;;;;;5034804;28;20257;-79
2022/05/13 15:12:57;;;;;;;3.43;3.10;;;;;;;;;;5034925;28;20199;-79
2022/05/13 15:15:26;;;;;;;5.33;3.10;;;;;;;;;;5034476;28;20237;-79
2022/05/13 15:17:56;;;;;;;6.87;3.30;;;;;;;;;;5034778;28;20289;-79
2022/05/13 15:20:25;;;;;;;4.47;3.07;;;;;;;;;;5034999;28;20190;-79
2022/05/13 15:22:53;;;;;;;3.13;2.70;;;;;;;;;;5034788;28;20235;-79
2022/05/13 15:25:23;;;;;;;3.27;2.97;;;;;;;;;;5034289;28;20664;-79
2022/05/13 15:27:50;;;;;;;2.73;2.50;;;;;;;;;;5034654;28;20281;-79
2022/05/13 15:30:19;;;;;;;3.93;3.53;;;;;;;;;;5034712;28;20277;-79
2022/05/13 15:32:47;;;;;;;5.93;3.07;;;;;;;;;;5034522;28;20582;-79
2022/05/13 15:35:15;;;;;;;3.60;3.30;;;;;;;;;;5034028;28;20297;-79
2022/05/13 15:37:42;;;;;;;5.50;3.50;;;;;;;;;;5034462;28;20209;-79
2022/05/13 15:40:11;;;;;;;8.27;2.70;;;;;;;;;;5034226;28;20205;-79